Time;durP1;ratioP1;P1;durP2;ratioP2;P2;SDS_P1;SDS_P2;PMS_P1;PMS_P2;Temp;Humidity;BMP_temperature;BMP_pressure;BME280_temperature;BME280_humidity;BME280_pressure;Samples;Min_cycle;Max_cycle;Signal;HPM_P1;HPM_P2
2022/04/17 00:02:26;;;;;;;29.90;11.95;;;;;;;7.97;100.00;99962.27;1796586;79;21236;-77
2022/04/17 00:05:32;;;;;;;23.15;11.57;;;;;;;7.97;100.00;99975.89;1787629;79;21196;-77
2022/04/17 00:08:38;;;;;;;19.17;11.53;;;;;;;7.97;100.00;99969.08;1776359;79;21173;-78
2022/04/17 00:11:44;;;;;;;24.00;11.97;;;;;;;7.98;100.00;99968.90;1791352;79;21251;-79
2022/04/17 00:14:50;;;;;;;35.92;12.33;;;;;;;8.00;100.00;99966.00;1762676;79;21295;-78
2022/04/17 00:17:56;;;;;;;28.67;12.15;;;;;;;7.99;100.00;99964.30;1775390;79;21585;-78
2022/04/17 00:21:03;;;;;;;29.02;12.40;;;;;;;8.00;100.00;99962.80;1790283;79;21197;-78
2022/04/17 00:24:10;;;;;;;24.55;11.28;;;;;;;8.00;100.00;99961.91;1781232;79;21204;-77
2022/04/17 00:27:16;;;;;;;23.65;11.60;;;;;;;8.00;100.00;99956.47;1792417;79;21236;-78
2022/04/17 00:30:22;;;;;;;23.70;11.85;;;;;;;8.00;100.00;99961.91;1790053;79;21241;-78
2022/04/17 00:33:28;;;;;;;19.98;11.12;;;;;;;8.00;100.00;99966.00;1780162;79;21240;-77
2022/04/17 00:36:34;;;;;;;22.75;12.05;;;;;;;8.00;100.00;99966.00;1780006;79;21217;-78
2022/04/17 00:39:41;;;;;;;21.82;12.28;;;;;;;8.01;100.00;99968.58;1795274;79;21786;-77
2022/04/17 00:42:48;;;;;;;24.32;11.88;;;;;;;8.01;100.00;99971.81;1793846;79;21237;-78
2022/04/17 00:45:54;;;;;;;28.07;13.00;;;;;;;8.01;100.00;99981.34;1786996;79;21185;-78
2022/04/17 00:49:00;;;;;;;23.67;12.03;;;;;;;7.99;100.00;99984.22;1774547;79;21190;-77
2022/04/17 00:52:06;;;;;;;24.35;12.05;;;;;;;7.99;100.00;99980.64;1783448;79;21207;-77
2022/04/17 00:55:12;;;;;;;23.18;12.65;;;;;;;7.99;100.00;99972.47;1790206;79;21260;-77
2022/04/17 00:58:19;;;;;;;29.30;13.25;;;;;;;8.01;100.00;99976.75;1794275;79;21170;-77
2022/04/17 01:01:24;;;;;;;24.60;13.20;;;;;;;8.01;100.00;99978.63;1787329;79;21177;-77
2022/04/17 01:04:32;;;;;;;29.25;12.58;;;;;;;8.02;100.00;99968.06;1785641;79;21236;-77
2022/04/17 01:07:38;;;;;;;23.22;13.00;;;;;;;8.03;100.00;99975.20;1782904;79;21192;-77
2022/04/17 01:10:46;;;;;;;31.35;13.35;;;;;;;8.04;100.00;99970.09;1786094;79;22300;-77
2022/04/17 01:13:52;;;;;;;26.70;13.00;;;;;;;8.07;100.00;99961.59;1780860;79;21165;-77
2022/04/17 01:16:57;;;;;;;21.60;13.15;;;;;;;8.10;100.00;99959.91;1797396;79;21212;-78
2022/04/17 01:20:04;;;;;;;24.45;12.23;;;;;;;8.14;100.00;99962.13;1776437;79;21746;-77
2022/04/17 01:29:58;;;;;;;26.33;12.60;;;;;;;8.21;100.00;99944.58;1771634;79;21272;-79
2022/04/17 01:33:03;;;;;;;23.65;11.80;;;;;;;8.22;100.00;99944.91;1797410;79;21205;-78
2022/04/17 01:36:08;;;;;;;20.77;10.93;;;;;;;8.21;100.00;99943.22;1785153;79;21276;-78
2022/04/17 01:39:15;;;;;;;24.30;12.68;;;;;;;8.19;100.00;99958.38;1790311;79;21245;-82
2022/04/17 01:42:21;;;;;;;22.20;13.45;;;;;;;8.17;100.00;99963.13;1792715;79;21211;-78
2022/04/17 01:45:27;;;;;;;22.60;11.75;;;;;;;8.17;100.00;99964.49;1798055;79;21197;-78
2022/04/17 01:48:33;;;;;;;24.95;11.55;;;;;;;8.19;100.00;99968.44;1787596;79;21739;-77
2022/04/17 01:51:45;;;;;;;8.70;6.65;;;;;;;8.18;100.00;99975.73;1792997;79;21181;-78
2022/04/17 01:54:51;;;;;;;9.25;6.47;;;;;;;8.15;100.00;99973.36;1777365;79;21196;-78
2022/04/17 01:57:56;;;;;;;11.03;7.25;;;;;;;8.08;100.00;99979.13;1787104;79;21212;-77
2022/04/17 02:01:01;;;;;;;10.10;7.15;;;;;;;7.99;100.00;99993.75;1782085;79;21715;-78
2022/04/17 02:04:07;;;;;;;12.23;8.08;;;;;;;7.86;100.00;99983.36;1788817;79;21209;-78
2022/04/17 02:07:14;;;;;;;14.35;9.00;;;;;;;7.74;100.00;99977.87;1788486;79;21225;-77
2022/04/17 02:10:21;;;;;;;11.60;8.35;;;;;;;7.59;100.00;99983.63;1791840;79;21217;-77
2022/04/17 02:13:27;;;;;;;12.28;9.28;;;;;;;7.48;100.00;99986.14;1788898;79;21193;-78
2022/04/17 02:16:34;;;;;;;10.65;8.55;;;;;;;7.39;100.00;99982.53;1792081;79;22205;-78
2022/04/17 02:19:40;;;;;;;12.25;9.05;;;;;;;7.33;100.00;99974.16;1783751;79;21228;-78
2022/04/17 02:22:47;;;;;;;12.53;8.90;;;;;;;7.27;100.00;99974.81;1781232;79;21165;-78
2022/04/17 02:25:53;;;;;;;11.60;8.48;;;;;;;7.22;100.00;99961.70;1783281;79;21156;-77
2022/04/17 02:28:58;;;;;;;16.77;8.00;;;;;;;7.17;100.00;99977.16;1784116;79;21173;-78
2022/04/17 02:32:03;;;;;;;10.30;8.38;;;;;;;7.15;100.00;99974.23;1788729;79;21196;-78
2022/04/17 02:35:10;;;;;;;9.58;8.28;;;;;;;7.11;100.00;99971.52;1774967;79;21152;-77
2022/04/17 02:38:16;;;;;;;11.57;8.70;;;;;;;7.08;100.00;99974.05;1794321;79;21177;-77
2022/04/17 02:41:21;;;;;;;12.85;8.78;;;;;;;7.05;100.00;99977.08;1774017;79;21179;-78
2022/04/17 02:44:27;;;;;;;11.40;9.30;;;;;;;7.00;100.00;99975.35;1793579;79;21201;-78
2022/04/17 02:47:46;;;;;;;12.73;9.00;;;;;;;6.96;100.00;99990.28;1790196;79;21216;-78
2022/04/17 02:50:52;;;;;;;13.00;8.68;;;;;;;6.90;100.00;99979.55;1791884;79;21215;-78
2022/04/17 02:53:59;;;;;;;12.37;8.93;;;;;;;6.86;100.00;99984.10;1794718;79;21186;-77
2022/04/17 02:57:05;;;;;;;12.82;9.13;;;;;;;6.82;100.00;99988.16;1778351;79;21753;-77
2022/04/17 03:00:12;;;;;;;9.85;7.50;;;;;;;6.78;100.00;99994.95;1788254;79;21192;-78
2022/04/17 03:06:42;;;;;;;10.05;7.40;;;;;;;6.72;100.00;100004.56;1791057;79;21200;-77
2022/04/17 03:09:49;;;;;;;8.03;6.35;;;;;;;6.68;100.00;99996.41;1794029;79;21197;-78
2022/04/17 03:12:56;;;;;;;9.85;6.50;;;;;;;6.67;100.00;100005.55;1757016;80;21176;-78
2022/04/17 03:16:02;;;;;;;10.58;7.05;;;;;;;6.65;100.00;100002.16;1725313;82;21224;-78
2022/04/17 03:19:08;;;;;;;8.78;6.92;;;;;;;6.62;100.00;100011.46;1783290;79;21160;-79
2022/04/17 03:22:15;;;;;;;9.20;6.15;;;;;;;6.60;100.00;100010.78;1741632;81;21168;-78
2022/04/17 03:25:21;;;;;;;8.00;6.35;;;;;;;6.59;100.00;100016.38;1784808;79;21168;-78
2022/04/17 03:28:27;;;;;;;8.95;6.45;;;;;;;6.57;100.00;100018.39;1779788;79;21212;-78
2022/04/17 03:31:34;;;;;;;10.82;6.70;;;;;;;6.56;100.00;100020.77;1752513;81;21205;-78
2022/04/17 03:34:40;;;;;;;8.00;5.90;;;;;;;6.54;100.00;100010.06;1780588;79;21216;-78
2022/04/17 03:37:47;;;;;;;10.10;6.85;;;;;;;6.55;100.00;100012.27;1781266;79;21733;-78
2022/04/17 03:40:52;;;;;;;8.38;6.30;;;;;;;6.55;100.00;100002.25;1798225;79;21761;-78
2022/04/17 03:43:58;;;;;;;10.75;7.08;;;;;;;6.55;100.00;100004.97;1793718;79;21164;-78
2022/04/17 03:47:06;;;;;;;11.03;7.33;;;;;;;6.55;100.00;100005.48;1794693;79;21180;-78
2022/04/17 03:50:12;;;;;;;9.50;7.03;;;;;;;6.52;100.00;100013.94;1788626;79;21184;-78
2022/04/17 03:53:18;;;;;;;18.32;7.10;;;;;;;6.51;100.00;100006.80;1793311;79;21180;-78
2022/04/17 03:56:25;;;;;;;9.38;6.42;;;;;;;6.48;100.00;100005.23;1790002;79;21225;-78
2022/04/17 03:59:36;;;;;;;10.78;7.35;;;;;;;6.47;100.00;100010.33;1779659;79;21188;-77
2022/04/17 04:02:40;;;;;;;10.13;7.17;;;;;;;6.47;100.00;100004.05;1787969;78;23090;-77
2022/04/17 04:05:45;;;;;;;9.13;6.62;;;;;;;6.48;100.00;100003.03;1786592;79;21228;-77
2022/04/17 04:08:51;;;;;;;8.10;5.72;;;;;;;6.48;100.00;99995.73;1773003;79;21775;-77
2022/04/17 04:11:56;;;;;;;7.85;6.05;;;;;;;6.52;100.00;99993.55;1786072;79;21220;-78
2022/04/17 04:15:02;;;;;;;9.75;6.12;;;;;;;6.53;100.00;99993.89;1773641;79;21176;-78
2022/04/17 04:18:09;;;;;;;7.15;5.37;;;;;;;6.53;100.00;100012.41;1791050;79;21201;-79
2022/04/17 04:21:15;;;;;;;8.30;5.90;;;;;;;6.54;100.00;100032.28;1785639;79;21228;-78
2022/04/17 04:24:24;;;;;;;9.05;6.53;;;;;;;6.52;100.00;100027.02;1783235;79;21189;-78
2022/04/17 04:30:53;;;;;;;9.90;7.03;;;;;;;6.54;100.00;100018.69;1792308;79;21209;-78
2022/04/17 04:33:59;;;;;;;11.43;7.05;;;;;;;6.54;100.00;100026.84;1792481;79;21181;-78
2022/04/17 04:37:06;;;;;;;13.08;9.18;;;;;;;6.54;100.00;100024.13;1781690;79;21165;-78
2022/04/17 04:40:12;;;;;;;14.95;10.55;;;;;;;6.57;100.00;100023.31;1788945;79;21721;-78
2022/04/17 04:43:18;;;;;;;18.70;11.63;;;;;;;6.62;100.00;100023.69;1794652;79;21172;-78
2022/04/17 04:46:24;;;;;;;14.98;10.30;;;;;;;6.66;100.00;100029.16;1784017;79;21287;-78
2022/04/17 04:49:32;;;;;;;23.32;12.73;;;;;;;6.71;100.00;100026.48;1792578;79;21193;-78
2022/04/17 04:52:40;;;;;;;19.90;12.50;;;;;;;6.75;100.00;100033.31;1781124;79;21216;-78
2022/04/17 04:55:46;;;;;;;23.10;14.20;;;;;;;6.76;100.00;100027.70;1786566;79;21193;-82
2022/04/17 04:58:53;;;;;;;23.10;15.20;;;;;;;6.76;100.00;100023.63;1795087;79;21236;-77
2022/04/17 05:01:59;;;;;;;23.90;15.13;;;;;;;6.79;100.00;100021.97;1792763;79;21173;-78
2022/04/17 05:05:05;;;;;;;24.65;16.73;;;;;;;6.81;100.00;100026.72;1785347;79;21248;-77
2022/04/17 05:08:12;;;;;;;27.32;18.30;;;;;;;6.87;100.00;100036.13;1784822;79;21217;-78
2022/04/17 05:11:19;;;;;;;41.85;22.25;;;;;;;6.90;100.00;100036.64;1794445;79;21228;-78
2022/04/17 05:14:29;;;;;;;33.88;20.52;;;;;;;6.96;100.00;100056.05;1781034;79;21769;-78
2022/04/17 05:17:35;;;;;;;27.87;17.77;;;;;;;6.99;100.00;100053.02;1792081;79;21217;-78
2022/04/17 05:20:40;;;;;;;20.27;14.63;;;;;;;7.02;100.00;100058.16;1789363;79;21924;-78
2022/04/17 05:23:47;;;;;;;18.80;13.75;;;;;;;6.99;100.00;100074.27;1782220;79;21300;-78
2022/04/17 05:26:53;;;;;;;32.30;19.27;;;;;;;6.96;100.00;100064.20;1778189;79;21216;-78
2022/04/17 05:29:59;;;;;;;31.07;20.70;;;;;;;6.97;100.00;100061.86;1795388;79;21743;-78
2022/04/17 05:33:06;;;;;;;19.07;14.35;;;;;;;6.98;100.00;100063.56;1780345;79;22061;-78
2022/04/17 05:36:13;;;;;;;26.35;15.23;;;;;;;6.99;100.00;100062.03;1781281;79;21276;-78
2022/04/17 05:39:20;;;;;;;27.20;18.17;;;;;;;7.04;100.00;100076.52;1787913;79;22145;-78
2022/04/17 05:42:25;;;;;;;37.73;22.70;;;;;;;7.07;100.00;100080.28;1795375;79;22142;-77
2022/04/17 05:45:32;;;;;;;47.08;29.98;;;;;;;7.10;100.00;100079.94;1788597;79;21514;-77
2022/04/17 05:48:39;;;;;;;61.90;37.20;;;;;;;7.13;100.00;100089.16;1784055;79;21232;-78
2022/04/17 05:51:46;;;;;;;61.20;36.10;;;;;;;7.14;100.00;100084.91;1767173;80;21201;-78
2022/04/17 05:54:52;;;;;;;47.00;27.90;;;;;;;7.18;100.00;100089.53;1779785;79;21152;-78
2022/04/17 05:58:01;;;;;;;51.23;29.82;;;;;;;7.20;100.00;100093.44;1775015;79;21184;-78
2022/04/17 06:01:07;;;;;;;42.73;27.37;;;;;;;7.24;100.00;100105.20;1773916;79;21159;-78
2022/04/17 06:04:15;;;;;;;33.48;22.70;;;;;;;7.29;100.00;100109.69;1771044;79;21192;-78
2022/04/17 06:07:32;;;;;;;31.97;22.52;;;;;;;7.34;100.00;100104.61;1792236;78;21220;-78
2022/04/17 06:10:39;;;;;;;34.63;22.27;;;;;;;7.38;100.00;100099.17;1773881;79;21141;-79
2022/04/17 06:13:46;;;;;;;30.77;22.27;;;;;;;7.40;100.00;100093.08;1790318;79;21272;-78
2022/04/17 06:16:52;;;;;;;26.77;18.62;;;;;;;7.52;100.00;100095.51;1777725;79;21249;-78
2022/04/17 06:19:57;;;;;;;19.02;12.68;;;;;;;7.68;100.00;100083.36;1792266;79;21146;-78
2022/04/17 06:23:04;;;;;;;28.95;17.82;;;;;;;7.84;100.00;100072.52;1785648;79;21860;-78
2022/04/17 06:26:11;;;;;;;62.88;32.88;;;;;;;7.94;100.00;100082.77;1778982;79;21173;-78
2022/04/17 06:29:16;;;;;;;64.75;33.85;;;;;;;8.02;100.00;100079.23;1791833;79;21787;-78
2022/04/17 06:32:22;;;;;;;64.55;36.83;;;;;;;8.09;100.00;100085.73;1784288;79;21192;-78
2022/04/17 06:35:28;;;;;;;51.88;28.73;;;;;;;8.21;100.00;100097.16;1774822;79;21165;-78
2022/04/17 06:38:34;;;;;;;36.45;22.35;;;;;;;8.34;100.00;100105.71;1781173;79;21181;-78
2022/04/17 06:41:39;;;;;;;47.43;28.38;;;;;;;8.40;100.00;100111.03;1774742;79;21216;-78
2022/04/17 06:44:47;;;;;;;36.28;22.20;;;;;;;8.42;100.00;100118.52;1785697;79;21188;-78
2022/04/17 06:47:54;;;;;;;29.40;19.48;;;;;;;8.42;100.00;100120.77;1796229;79;21670;-78
2022/04/17 06:51:01;;;;;;;20.48;15.32;;;;;;;8.43;100.00;100125.70;1779786;79;21280;-77
2022/04/17 06:54:08;;;;;;;17.42;13.48;;;;;;;8.41;100.00;100120.39;1769983;79;21149;-77
2022/04/17 06:57:14;;;;;;;15.85;11.65;;;;;;;8.44;100.00;100128.25;1788924;79;21720;-78
2022/04/17 07:00:22;;;;;;;15.80;10.18;;;;;;;8.47;100.00;100131.64;1790768;79;21216;-77
2022/04/17 07:03:26;;;;;;;16.50;11.40;;;;;;;8.51;100.00;100134.38;1776369;79;21164;-78
2022/04/17 07:06:32;;;;;;;19.75;9.70;;;;;;;8.51;100.00;100134.38;1786625;79;21176;-77
2022/04/17 07:09:38;;;;;;;12.13;8.20;;;;;;;8.47;100.00;100141.19;1793403;79;21216;-78
2022/04/17 07:12:44;;;;;;;9.33;6.40;;;;;;;8.41;100.00;100139.47;1775745;79;21181;-78
2022/04/17 07:15:50;;;;;;;13.13;6.05;;;;;;;8.36;100.00;100136.88;1775085;79;21153;-78
2022/04/17 07:18:56;;;;;;;6.65;5.42;;;;;;;8.32;100.00;100137.70;1776683;79;21212;-78
2022/04/17 07:22:02;;;;;;;8.40;5.90;;;;;;;8.30;100.00;100138.91;1774980;79;21782;-78
2022/04/17 07:25:08;;;;;;;7.90;5.35;;;;;;;8.32;100.00;100130.89;1791633;79;21231;-78
2022/04/17 07:28:19;;;;;;;9.18;6.33;;;;;;;8.36;100.00;100135.03;1753142;81;21252;-78
2022/04/17 07:31:25;;;;;;;10.93;7.03;;;;;;;8.39;100.00;100123.81;1723924;82;21256;-78
2022/04/17 07:34:31;;;;;;;9.73;6.17;;;;;;;8.41;100.00;100116.30;1751156;81;21243;-78
2022/04/17 07:37:38;;;;;;;10.90;6.67;;;;;;;8.37;100.00;100104.02;1716186;81;21212;-78
2022/04/17 07:40:45;;;;;;;12.55;7.28;;;;;;;8.36;100.00;100098.23;1712861;82;21253;-78
2022/04/17 07:43:52;;;;;;;10.23;6.42;;;;;;;8.40;100.00;100095.53;1750532;81;21220;-78
2022/04/17 07:47:00;;;;;;;9.80;6.05;;;;;;;8.52;100.00;100106.13;1792445;79;21197;-78
2022/04/17 07:50:08;;;;;;;10.88;7.17;;;;;;;8.54;100.00;100102.71;1780397;79;21268;-77
2022/04/17 07:53:13;;;;;;;12.43;7.50;;;;;;;8.55;100.00;100097.59;1775367;79;21757;-77
2022/04/17 07:56:21;;;;;;;8.18;6.15;;;;;;;8.64;100.00;100114.30;1771171;79;21168;-78
2022/04/17 07:59:28;;;;;;;8.48;5.75;;;;;;;8.64;100.00;100118.39;1792619;79;21710;-82
2022/04/17 08:02:49;;;;;;;10.65;6.17;;;;;;;8.56;100.00;100122.47;1791138;79;21267;-82
2022/04/17 08:05:48;;;;;;;8.33;6.12;;;;;;;8.51;100.00;100126.20;1790625;79;21212;-82
2022/04/17 08:08:55;;;;;;;11.78;8.20;;;;;;;8.47;100.00;100113.45;1784975;79;21161;-77
2022/04/17 08:12:01;;;;;;;12.45;8.23;;;;;;;8.42;100.00;100121.24;1752642;81;21246;-82
2022/04/17 08:15:10;;;;;;;7.72;5.80;;;;;;;8.43;100.00;100112.07;1718440;82;21264;-82
2022/04/17 08:18:15;;;;;;;10.68;7.97;;;;;;;8.50;100.00;100118.55;1741548;81;21760;-82
2022/04/17 08:21:22;;;;;;;19.15;12.03;;;;;;;8.57;99.94;100121.47;1783977;79;21188;-82
2022/04/17 08:24:30;;;;;;;27.02;16.60;;;;;;;8.64;99.74;100119.76;1790512;79;21179;-82
2022/04/17 08:27:35;;;;;;;16.17;11.05;;;;;;;8.68;99.42;100120.61;1794481;79;21181;-82
2022/04/17 08:30:43;;;;;;;8.63;6.28;;;;;;;8.77;99.04;100107.84;1795104;79;21184;-82
2022/04/17 08:33:50;;;;;;;9.78;6.25;;;;;;;8.80;98.46;100102.55;1795698;79;21173;-82
2022/04/17 08:36:55;;;;;;;8.28;6.10;;;;;;;8.82;98.32;100104.09;1791165;79;21714;-82
2022/04/17 08:40:01;;;;;;;9.45;5.45;;;;;;;8.86;97.29;100099.16;1788718;79;21169;-82
2022/04/17 08:43:07;;;;;;;9.80;6.15;;;;;;;8.95;96.51;100098.14;1779505;79;21193;-82
2022/04/17 08:46:12;;;;;;;15.93;10.13;;;;;;;9.05;96.79;100108.88;1791886;79;21177;-83
2022/04/17 08:49:19;;;;;;;17.40;11.03;;;;;;;9.15;95.96;100098.63;1788708;79;21845;-82
2022/04/17 08:52:26;;;;;;;18.05;12.18;;;;;;;9.21;95.17;100098.78;1795732;79;21216;-82
2022/04/17 08:55:31;;;;;;;45.92;26.48;;;;;;;9.31;94.71;100104.05;1789000;79;21185;-82
2022/04/17 08:58:37;;;;;;;48.48;31.07;;;;;;;9.42;94.51;100100.12;1781955;79;21169;-83
2022/04/17 09:01:46;;;;;;;58.30;31.65;;;;;;;9.54;93.97;100106.06;1762886;79;21196;-82
2022/04/17 09:04:53;;;;;;;52.75;33.33;;;;;;;9.61;93.58;100101.62;1789712;79;21208;-83
2022/04/17 09:08:01;;;;;;;60.75;36.73;;;;;;;9.64;92.21;100095.78;1793787;79;21200;-82
2022/04/17 09:11:07;;;;;;;57.38;36.77;;;;;;;9.69;92.24;100090.64;1793194;79;21201;-82
2022/04/17 09:14:14;;;;;;;68.62;41.23;;;;;;;9.77;91.98;100084.31;1758956;79;21200;-82
2022/04/17 09:17:19;;;;;;;77.67;41.02;;;;;;;9.88;91.32;100081.18;1788695;79;21782;-82
2022/04/17 09:20:44;;;;;;;83.90;45.35;;;;;;;9.97;90.69;100086.46;1782125;79;21148;-82
2022/04/17 09:23:49;;;;;;;63.17;38.73;;;;;;;10.04;90.21;100084.37;1794997;79;21204;-82
2022/04/17 09:27:05;;;;;;;71.95;41.77;;;;;;;10.06;90.12;100081.78;1783647;79;21156;-82
2022/04/17 09:30:12;;;;;;;57.50;35.13;;;;;;;10.06;90.58;100086.40;1777272;79;21726;-83
2022/04/17 09:33:19;;;;;;;79.20;43.48;;;;;;;9.99;90.07;100098.05;1707076;81;21172;-82
2022/04/17 09:36:27;;;;;;;74.22;42.85;;;;;;;9.91;90.17;100093.13;1771869;79;21239;-82
2022/04/17 09:39:40;;;;;;;88.25;51.05;;;;;;;9.90;90.17;100087.34;1788442;79;21161;-82
2022/04/17 09:42:47;;;;;;;95.92;49.63;;;;;;;9.88;89.81;100086.64;1795067;79;21177;-82
2022/04/17 09:46:11;;;;;;;96.70;51.37;;;;;;;9.79;90.02;100095.41;1785738;79;21193;-82
2022/04/17 09:49:15;;;;;;;81.67;44.80;;;;;;;9.77;90.19;100096.60;1781706;79;21189;-82
2022/04/17 09:52:22;;;;;;;76.53;43.00;;;;;;;9.76;90.29;100092.17;1781673;79;21185;-82
2022/04/17 09:55:38;;;;;;;65.40;42.03;;;;;;;9.76;89.95;100088.08;1789544;79;21738;-82
2022/04/17 09:58:47;;;;;;;64.07;43.38;;;;;;;9.75;89.31;100094.58;1787242;78;21525;-82
2022/04/17 10:01:55;;;;;;;65.22;39.73;;;;;;;9.72;89.60;100110.78;1773427;79;21200;-82
2022/04/17 10:05:00;;;;;;;70.95;42.00;;;;;;;9.72;90.34;100110.27;1787837;79;21225;-82
2022/04/17 10:08:07;;;;;;;65.70;40.90;;;;;;;9.72;90.52;100114.88;1782265;79;21208;-82
2022/04/17 10:11:13;;;;;;;64.77;40.33;;;;;;;9.73;90.24;100117.95;1775601;79;21232;-82
2022/04/17 10:14:19;;;;;;;65.32;41.63;;;;;;;9.71;89.73;100109.94;1768270;79;21209;-82
2022/04/17 10:17:27;;;;;;;72.65;42.30;;;;;;;9.70;89.62;100111.49;1788967;79;21216;-82
2022/04/17 10:20:34;;;;;;;68.05;40.45;;;;;;;9.67;90.29;100113.20;1738880;81;21149;-82
2022/04/17 10:23:45;;;;;;;69.32;41.55;;;;;;;9.66;90.58;100111.50;1784643;79;21173;-82
2022/04/17 10:26:56;;;;;;;70.42;41.68;;;;;;;9.64;90.77;100109.44;1790903;79;21160;-82
2022/04/17 10:30:05;;;;;;;62.98;39.38;;;;;;;9.59;91.46;100108.59;1793471;79;21185;-82
2022/04/17 10:33:47;;;;;;;50.23;32.30;;;;;;;9.53;90.78;100109.83;1787884;79;21172;-82
2022/04/17 10:37:19;;;;;;;44.65;29.18;;;;;;;9.47;91.00;100116.32;1788638;79;21193;-82
2022/04/17 10:40:25;;;;;;;29.87;22.62;;;;;;;9.47;90.42;100112.74;1782519;79;21176;-83
2022/04/17 10:43:32;;;;;;;37.73;23.55;;;;;;;9.50;90.72;100123.81;1771774;79;21188;-82
2022/04/17 10:46:57;;;;;;;34.98;24.20;;;;;;;9.52;90.22;100123.14;1790593;79;21232;-82
2022/04/17 10:50:04;;;;;;;37.80;24.40;;;;;;;9.58;90.26;100125.17;1793486;79;21220;-82
2022/04/17 10:53:35;;;;;;;33.80;21.55;;;;;;;9.63;89.90;100125.49;1791488;79;21797;-82
2022/04/17 10:56:41;;;;;;;;;;;;;;;9.65;89.42;100116.11;1797743;79;21224;-82
2022/04/17 10:59:46;;;;;;;28.05;19.25;;;;;;;9.64;89.58;100119.00;1779161;79;20221;-82
2022/04/17 11:02:51;;;;;;;31.95;20.10;;;;;;;9.58;89.63;100112.36;1791257;79;21237;-82
2022/04/17 11:06:17;;;;;;;22.48;16.45;;;;;;;9.55;89.95;100114.58;1792406;79;21723;-83
2022/04/17 11:09:39;;;;;;;23.65;15.58;;;;;;;9.55;90.10;100107.75;1790508;79;21239;-82
2022/04/17 11:12:44;;;;;;;23.55;14.15;;;;;;;9.59;90.07;100104.50;1780622;79;21765;-82
2022/04/17 11:15:49;;;;;;;25.52;14.13;;;;;;;9.63;89.56;100100.40;1769156;79;21172;-77
2022/04/17 11:18:58;;;;;;;14.23;10.15;;;;;;;9.69;89.46;100099.72;1795001;79;21760;-77
2022/04/17 11:22:05;;;;;;;;;;;;;;;9.72;88.58;100098.50;1781770;79;21184;-78
2022/04/17 11:25:15;;;;;;;11.80;7.40;;;;;;;9.78;88.83;100090.95;1792626;79;20201;-82
2022/04/17 11:28:43;;;;;;;12.10;8.88;;;;;;;9.83;88.36;100088.54;1793315;79;21742;-82
2022/04/17 11:31:48;;;;;;;11.97;8.15;;;;;;;9.89;88.04;100076.08;1793926;79;21173;-81
2022/04/17 11:34:55;;;;;;;7.28;6.28;;;;;;;9.89;87.65;100087.86;1784916;79;21176;-81
2022/04/17 11:38:11;;;;;;;5.60;4.75;;;;;;;9.90;87.18;100087.34;1776399;79;21176;-82
2022/04/17 11:41:16;;;;;;;4.50;3.60;;;;;;;9.92;87.46;100087.48;1790385;79;21794;-83
2022/04/17 11:44:23;;;;;;;4.67;3.08;;;;;;;10.00;87.39;100086.60;1786136;79;21198;-82
2022/04/17 11:47:29;;;;;;;6.33;2.98;;;;;;;10.04;86.47;100084.37;1763666;79;21735;-82
2022/04/17 11:50:35;;;;;;;3.08;2.60;;;;;;;10.04;86.21;100083.01;1778624;79;21264;-82
2022/04/17 11:53:41;;;;;;;6.03;2.55;;;;;;;10.04;86.23;100081.64;1781083;79;22436;-82
2022/04/17 11:57:00;;;;;;;3.33;3.02;;;;;;;10.06;86.61;100081.78;1717647;81;21204;-78
2022/04/17 12:00:07;;;;;;;3.65;2.92;;;;;;;10.09;85.91;100086.05;1709588;82;21777;-78
2022/04/17 12:03:13;;;;;;;4.10;3.50;;;;;;;10.12;85.67;100087.08;1699515;82;21804;-77
2022/04/17 12:06:19;;;;;;;3.92;3.25;;;;;;;10.13;85.68;100079.20;1696003;83;21745;-77
2022/04/17 12:09:27;;;;;;;4.62;3.12;;;;;;;10.16;85.80;100078.83;1699277;82;21256;-77
2022/04/17 12:12:34;;;;;;;5.20;4.35;;;;;;;10.14;85.71;100080.90;1709086;82;21757;-77
2022/04/17 12:15:39;;;;;;;5.72;3.17;;;;;;;10.10;85.34;100076.30;1686714;82;21212;-77
2022/04/17 12:18:46;;;;;;;3.17;2.87;;;;;;;10.06;84.56;100076.31;1698675;82;21198;-77
2022/04/17 12:21:52;;;;;;;39.20;18.73;;;;;;;9.98;84.26;100079.96;1699836;82;21149;-77
2022/04/17 12:24:59;;;;;;;33.55;18.10;;;;;;;9.91;85.22;100072.64;1696171;82;21185;-77
2022/04/17 12:28:06;;;;;;;33.30;17.48;;;;;;;9.85;86.42;100088.39;1699178;82;21236;-77
2022/04/17 12:31:12;;;;;;;31.50;17.30;;;;;;;9.77;86.52;100085.67;1699329;83;21212;-77
2022/04/17 12:34:23;;;;;;;31.30;16.42;;;;;;;9.63;86.50;100068.99;1698138;82;21249;-77
2022/04/17 12:37:29;;;;;;;25.23;16.00;;;;;;;9.50;87.73;100076.88;1682142;82;21228;-77
2022/04/17 12:40:36;;;;;;;29.67;17.02;;;;;;;9.39;88.26;100082.20;1643339;85;21194;-77
2022/04/17 12:43:41;;;;;;;26.02;15.90;;;;;;;9.32;88.43;100073.03;1708453;82;21201;-77
2022/04/17 12:46:48;;;;;;;28.92;16.90;;;;;;;9.28;89.35;100074.91;1709572;82;21786;-78
2022/04/17 12:49:58;;;;;;;35.17;19.42;;;;;;;9.24;89.59;100066.21;1708149;82;21240;-78
2022/04/17 12:53:03;;;;;;;28.00;15.28;;;;;;;9.24;89.99;100059.91;1702214;82;21825;-77
2022/04/17 12:56:10;;;;;;;24.07;14.30;;;;;;;9.23;89.62;100071.34;1700148;82;21202;-78
2022/04/17 12:59:16;;;;;;;23.73;12.90;;;;;;;9.17;89.54;100074.73;1703005;82;21257;-79
2022/04/17 13:02:29;;;;;;;9.93;7.97;;;;;;;9.10;90.01;100080.56;1669290;83;21196;-77
2022/04/17 13:05:35;;;;;;;15.03;9.05;;;;;;;9.06;89.57;100081.41;1705275;83;21723;-77
2022/04/17 13:08:41;;;;;;;26.77;8.63;;;;;;;9.00;90.33;100086.72;1702291;82;21170;-77
2022/04/17 13:11:51;;;;;;;10.28;7.62;;;;;;;8.92;90.24;100082.95;1705507;82;21189;-77
2022/04/17 13:15:05;;;;;;;7.83;5.83;;;;;;;8.85;90.96;100087.41;1699397;82;21185;-77
2022/04/17 13:18:11;;;;;;;5.70;4.50;;;;;;;8.80;91.15;100089.79;1705120;82;21193;-77
2022/04/17 13:21:16;;;;;;;5.60;4.22;;;;;;;8.77;91.14;100087.39;1704039;82;21204;-77
2022/04/17 13:24:21;;;;;;;4.60;3.90;;;;;;;8.73;91.39;100084.66;1701866;82;21253;-78
2022/04/17 13:27:26;;;;;;;4.58;3.72;;;;;;;8.72;91.85;100076.66;1701940;82;21205;-78
2022/04/17 13:30:32;;;;;;;5.70;3.80;;;;;;;8.70;91.43;100079.53;1707792;82;21221;-78
2022/04/17 13:33:38;;;;;;;7.12;4.80;;;;;;;8.71;91.47;100081.27;1706183;82;21758;-78
2022/04/17 13:36:44;;;;;;;6.72;4.70;;;;;;;8.72;91.72;100076.15;1703677;82;21257;-78
2022/04/17 13:39:51;;;;;;;5.75;4.45;;;;;;;8.73;91.50;100077.84;1703294;82;21217;-77
2022/04/17 13:42:58;;;;;;;5.70;4.20;;;;;;;8.74;92.01;100072.72;1701499;82;21209;-77
2022/04/17 13:46:05;;;;;;;5.05;4.10;;;;;;;8.76;92.25;100065.76;1705825;82;21240;-78
2022/04/17 13:49:10;;;;;;;7.20;3.92;;;;;;;8.76;91.67;100067.97;1697326;82;21782;-78
2022/04/17 13:52:16;;;;;;;9.33;3.70;;;;;;;8.76;91.67;100062.52;1696820;83;21231;-78
2022/04/17 13:55:27;;;;;;;8.08;6.42;;;;;;;8.75;91.59;100062.66;1682514;82;21252;-78
2022/04/17 13:58:33;;;;;;;15.28;9.43;;;;;;;8.75;91.69;100056.73;1707493;82;21194;-78
2022/04/17 14:01:38;;;;;;;9.03;7.45;;;;;;;8.74;91.51;100057.73;1702316;82;21181;-78
2022/04/17 14:04:43;;;;;;;10.05;5.67;;;;;;;8.72;91.76;100065.75;1707763;82;21205;-78
2022/04/17 14:07:49;;;;;;;8.75;4.25;;;;;;;8.66;92.02;100060.48;1696449;82;21233;-78
2022/04/17 14:10:55;;;;;;;6.22;4.30;;;;;;;8.58;92.53;100059.09;1699704;83;21213;-78
2022/04/17 14:14:01;;;;;;;5.15;3.52;;;;;;;8.51;93.10;100063.51;1691153;82;21293;-77
2022/04/17 14:17:10;;;;;;;4.58;3.98;;;;;;;8.49;93.90;100061.48;1674972;84;21189;-77
2022/04/17 14:20:16;;;;;;;5.22;4.42;;;;;;;8.47;93.79;100068.47;1707373;82;21356;-77
2022/04/17 14:23:24;;;;;;;6.78;4.45;;;;;;;8.43;93.82;100065.73;1705615;82;21789;-77
2022/04/17 14:26:31;;;;;;;7.08;4.33;;;;;;;8.40;94.31;100071.00;1703101;82;21272;-77
2022/04/17 14:29:37;;;;;;;6.90;4.87;;;;;;;8.39;94.82;100067.94;1707794;82;21201;-77
2022/04/17 14:32:43;;;;;;;8.65;5.42;;;;;;;8.34;95.31;100067.56;1703938;82;21767;-78
2022/04/17 14:35:56;;;;;;;7.92;5.78;;;;;;;8.31;96.07;100070.61;1711803;82;21277;-82
2022/04/17 14:38:58;;;;;;;9.38;6.15;;;;;;;8.25;96.36;100074.02;1699001;82;21239;-77
2022/04/17 14:42:04;;;;;;;10.88;8.23;;;;;;;8.20;97.64;100069.58;1703343;82;21193;-82